createdAt,value
2024-01-27T00:01:21.486Z,9.54
2024-01-27T00:03:48.146Z,9.40
2024-01-27T00:06:14.903Z,9.00
2024-01-27T00:08:43.097Z,8.97
2024-01-27T00:11:11.836Z,9.16
2024-01-27T00:13:38.566Z,9.07
2024-01-27T00:16:06.413Z,9.29
2024-01-27T00:18:33.210Z,8.95
2024-01-27T00:21:00.025Z,8.47
2024-01-27T00:23:26.821Z,7.98
2024-01-27T00:25:54.993Z,7.99
2024-01-27T00:28:21.667Z,8.23
2024-01-27T00:30:48.466Z,9.48
2024-01-27T00:33:15.353Z,9.83
2024-01-27T00:35:42.171Z,9.77
2024-01-27T00:38:08.865Z,9.50
2024-01-27T00:40:35.587Z,9.46
2024-01-27T00:43:04.898Z,9.44
2024-01-27T00:45:31.714Z,9.19
2024-01-27T00:47:58.714Z,8.96
2024-01-27T00:50:25.572Z,9.08
2024-01-27T00:52:52.786Z,9.49
2024-01-27T00:55:20.500Z,9.89
2024-01-27T00:57:47.193Z,9.60
2024-01-27T01:00:16.346Z,9.36
2024-01-27T01:02:43.049Z,9.49
2024-01-27T01:05:09.724Z,9.44
2024-01-27T01:07:36.585Z,9.39
2024-01-27T01:10:03.636Z,9.65
2024-01-27T01:12:30.521Z,9.07
2024-01-27T01:14:57.401Z,8.69
2024-01-27T01:17:25.498Z,8.29
2024-01-27T01:19:52.359Z,7.98
2024-01-27T01:22:19.136Z,7.87
2024-01-27T01:24:45.801Z,7.74
2024-01-27T01:27:12.573Z,7.57
2024-01-27T01:29:39.308Z,7.56
2024-01-27T01:32:06.693Z,7.41
2024-01-27T01:34:34.865Z,7.54
2024-01-27T01:37:01.641Z,6.87
2024-01-27T01:39:28.425Z,6.87
2024-01-27T01:41:55.229Z,6.36
2024-01-27T01:44:21.983Z,6.37
2024-01-27T01:46:48.710Z,6.17
2024-01-27T01:49:15.574Z,6.35
2024-01-27T01:51:43.700Z,6.37
2024-01-27T01:54:10.438Z,6.61
2024-01-27T01:56:37.140Z,6.66
2024-01-27T01:59:03.798Z,6.66
2024-01-27T02:01:30.778Z,6.02
2024-01-27T02:03:57.673Z,5.80
2024-01-27T02:06:24.432Z,5.77
2024-01-27T02:08:52.617Z,5.95
2024-01-27T02:11:19.398Z,5.94
2024-01-27T02:13:46.327Z,5.71
2024-01-27T02:16:13.142Z,5.46
2024-01-27T02:18:39.991Z,6.03
2024-01-27T02:21:06.777Z,5.64
2024-01-27T02:23:33.580Z,5.09
2024-01-27T02:26:01.724Z,4.71
2024-01-27T02:28:28.440Z,4.33
2024-01-27T02:30:55.151Z,4.46
2024-01-27T02:33:21.992Z,4.16
2024-01-27T02:35:48.784Z,4.14
2024-01-27T02:38:15.512Z,3.87
2024-01-27T02:40:42.235Z,3.98
2024-01-27T02:43:10.375Z,4.17
2024-01-27T02:45:37.131Z,3.98
2024-01-27T02:48:04.493Z,4.08
2024-01-27T02:50:31.294Z,4.19
2024-01-27T02:52:58.051Z,4.20
2024-01-27T02:55:24.775Z,4.01
2024-01-27T02:57:51.448Z,4.70
2024-01-27T03:00:19.825Z,4.88
2024-01-27T03:02:46.525Z,4.19
2024-01-27T03:05:13.513Z,3.83
2024-01-27T03:07:40.231Z,3.65
2024-01-27T03:10:07.549Z,3.18
2024-01-27T03:12:34.402Z,3.14
2024-01-27T03:15:01.523Z,2.95
2024-01-27T03:17:29.586Z,2.63
2024-01-27T03:19:56.479Z,2.73
2024-01-27T03:22:23.257Z,3.03
2024-01-27T03:24:49.956Z,2.97
2024-01-27T03:27:16.832Z,2.94
2024-01-27T03:29:43.611Z,2.93
2024-01-27T03:32:10.323Z,2.94
2024-01-27T03:34:39.258Z,3.21
2024-01-27T03:37:05.982Z,3.16
2024-01-27T03:39:32.890Z,3.29
2024-01-27T03:41:59.698Z,3.60
2024-01-27T03:44:26.446Z,3.50
2024-01-27T03:46:53.201Z,3.62
2024-01-27T03:49:20.039Z,3.94
2024-01-27T03:51:48.166Z,4.01
2024-01-27T03:54:14.889Z,3.79
2024-01-27T03:56:41.978Z,4.30
2024-01-27T03:59:08.732Z,4.80
2024-01-27T04:01:35.534Z,5.39
2024-01-27T04:04:02.373Z,5.18
2024-01-27T04:06:29.371Z,5.61
2024-01-27T04:08:57.625Z,6.36
2024-01-27T04:11:24.437Z,7.54
2024-01-27T04:13:51.407Z,8.27
2024-01-27T04:16:18.081Z,7.72
2024-01-27T04:18:44.960Z,7.64
2024-01-27T04:21:11.779Z,6.98
2024-01-27T04:23:38.511Z,6.49
2024-01-27T04:26:06.626Z,6.41
2024-01-27T04:28:33.330Z,6.45
2024-01-27T04:31:00.092Z,6.37
2024-01-27T04:33:27.045Z,6.26
2024-01-27T04:35:53.803Z,6.49
2024-01-27T04:38:20.606Z,7.90
2024-01-27T04:40:47.591Z,8.16
2024-01-27T04:43:16.976Z,8.22
2024-01-27T04:45:43.710Z,8.06
2024-01-27T04:48:10.819Z,8.56
2024-01-27T04:50:37.603Z,8.00
2024-01-27T04:53:04.686Z,7.68
2024-01-27T04:55:31.444Z,6.75
2024-01-27T04:57:58.136Z,6.65
2024-01-27T05:00:26.373Z,7.33
2024-01-27T05:02:53.269Z,7.80
2024-01-27T05:05:20.084Z,8.36
2024-01-27T05:07:46.791Z,8.66
2024-01-27T05:10:13.509Z,9.70
2024-01-27T05:12:40.428Z,9.80
2024-01-27T05:15:07.879Z,9.60
2024-01-27T05:17:35.996Z,9.03
2024-01-27T05:20:02.882Z,8.22
2024-01-27T05:22:29.605Z,8.31
2024-01-27T05:24:56.342Z,8.65
2024-01-27T05:27:23.089Z,8.54
2024-01-27T05:29:49.991Z,8.33
2024-01-27T05:32:16.771Z,8.31
2024-01-27T05:34:44.990Z,8.30
2024-01-27T05:37:11.776Z,8.33
2024-01-27T05:39:38.495Z,8.90
2024-01-27T05:42:05.421Z,8.91
2024-01-27T05:44:32.167Z,8.75
2024-01-27T05:46:58.945Z,8.81
2024-01-27T05:49:25.805Z,10.06
2024-01-27T05:51:53.993Z,10.41
2024-01-27T05:54:20.729Z,10.94
2024-01-27T05:56:47.407Z,11.45
2024-01-27T05:59:14.112Z,12.32
2024-01-27T06:01:40.810Z,12.24
2024-01-27T06:04:07.678Z,12.67
2024-01-27T06:06:34.553Z,13.44
2024-01-27T06:09:02.841Z,13.15
2024-01-27T06:11:30.673Z,13.69
2024-01-27T06:13:57.493Z,13.76
2024-01-27T06:16:24.248Z,14.49
2024-01-27T06:18:51.076Z,14.21
2024-01-27T06:21:18.011Z,14.14
2024-01-27T06:23:44.820Z,13.00
2024-01-27T06:26:13.997Z,13.14
2024-01-27T06:28:40.737Z,12.27
2024-01-27T06:31:07.535Z,12.68
2024-01-27T06:33:35.787Z,11.82
2024-01-27T06:36:02.810Z,11.84
2024-01-27T06:38:29.594Z,11.43
2024-01-27T06:40:56.358Z,11.55
2024-01-27T06:43:24.817Z,11.06
2024-01-27T06:45:51.722Z,11.71
2024-01-27T06:48:18.549Z,10.83
2024-01-27T06:50:45.355Z,10.07
2024-01-27T06:53:12.216Z,9.71
2024-01-27T06:55:42.485Z,9.52
2024-01-27T06:58:10.516Z,9.84
2024-01-27T07:00:38.796Z,9.66
2024-01-27T07:03:06.028Z,10.17
2024-01-27T07:05:32.929Z,9.92
2024-01-27T07:07:59.802Z,10.25
2024-01-27T07:10:26.477Z,10.42
2024-01-27T07:12:53.256Z,9.75
2024-01-27T07:15:19.990Z,10.08
2024-01-27T07:17:48.067Z,10.34
2024-01-27T07:20:15.060Z,9.86
2024-01-27T07:22:42.664Z,10.40
2024-01-27T07:25:09.396Z,9.80
2024-01-27T07:27:36.159Z,10.02
2024-01-27T07:30:03.102Z,10.19
2024-01-27T07:32:29.918Z,9.52
2024-01-27T07:34:57.999Z,9.82
2024-01-27T07:37:24.939Z,10.31
2024-01-27T07:39:51.699Z,9.14
2024-01-27T07:42:18.451Z,9.00
2024-01-27T07:44:45.276Z,9.69
2024-01-27T07:47:12.067Z,10.28
2024-01-27T07:49:39.042Z,8.92
2024-01-27T07:52:07.556Z,7.64
2024-01-27T07:54:34.366Z,7.80
2024-01-27T07:57:01.400Z,7.97
2024-01-27T07:59:33.429Z,7.53
2024-01-27T08:02:00.936Z,6.92
2024-01-27T08:04:28.119Z,6.86
2024-01-27T08:06:55.290Z,7.14
2024-01-27T08:09:23.460Z,7.38
2024-01-27T08:11:50.234Z,7.49
2024-01-27T08:14:16.996Z,7.95
2024-01-27T08:16:43.719Z,7.71
2024-01-27T08:19:10.516Z,7.76
2024-01-27T08:21:37.440Z,8.27
2024-01-27T08:24:04.772Z,7.77
2024-01-27T08:26:32.830Z,7.98
2024-01-27T08:28:59.620Z,8.16
2024-01-27T08:31:26.327Z,7.97
2024-01-27T08:33:53.355Z,8.61
2024-01-27T08:36:20.365Z,8.51
2024-01-27T08:38:47.035Z,7.89
2024-01-27T08:41:16.514Z,7.67
2024-01-27T08:43:44.706Z,7.24
2024-01-27T08:46:11.625Z,6.86
2024-01-27T08:48:38.455Z,6.39
2024-01-27T08:51:05.297Z,6.02
2024-01-27T08:53:32.028Z,6.25
2024-01-27T08:55:58.719Z,7.07
2024-01-27T08:58:25.555Z,6.57
2024-01-27T09:00:53.717Z,6.50
2024-01-27T09:03:21.254Z,6.84
2024-01-27T09:05:48.564Z,6.77
2024-01-27T09:08:15.798Z,6.73
2024-01-27T09:10:43.101Z,7.08
2024-01-27T09:13:14.186Z,6.83
2024-01-27T09:15:44.556Z,6.50
2024-01-27T09:18:14.185Z,6.72
2024-01-27T09:20:42.102Z,7.17
2024-01-27T09:23:10.677Z,7.15
2024-01-27T09:25:38.674Z,9.68
2024-01-27T09:28:08.504Z,8.11
2024-01-27T09:30:38.646Z,6.74
2024-01-27T09:33:06.669Z,6.80
2024-01-27T09:35:34.722Z,7.01
2024-01-27T09:38:01.504Z,6.32
2024-01-27T09:40:28.194Z,6.60
2024-01-27T09:42:54.882Z,6.89
2024-01-27T09:45:21.870Z,6.96
2024-01-27T09:47:48.649Z,6.68
2024-01-27T09:50:16.041Z,6.16
2024-01-27T09:52:44.189Z,6.19
2024-01-27T09:55:10.845Z,6.16
2024-01-27T09:57:40.929Z,6.49
2024-01-27T10:00:10.586Z,6.18
2024-01-27T10:02:37.623Z,6.27
2024-01-27T10:05:05.023Z,6.41
2024-01-27T10:07:31.717Z,6.25
2024-01-27T10:09:59.724Z,5.96
2024-01-27T10:12:26.833Z,5.30
2024-01-27T10:14:53.659Z,5.72
2024-01-27T10:17:21.446Z,5.73
2024-01-27T10:19:48.198Z,4.73
2024-01-27T10:22:14.955Z,4.60
2024-01-27T10:24:41.647Z,5.03
2024-01-27T10:27:10.862Z,4.93
2024-01-27T10:29:37.583Z,4.68
2024-01-27T10:32:10.506Z,4.51
2024-01-27T10:34:37.360Z,4.74
2024-01-27T10:37:04.222Z,4.58
2024-01-27T10:39:34.543Z,4.57
2024-01-27T10:42:01.837Z,4.60
2024-01-27T10:44:30.131Z,4.65
2024-01-27T10:46:56.902Z,4.36
2024-01-27T10:49:23.821Z,4.22
2024-01-27T10:51:54.993Z,4.19
2024-01-27T10:54:26.003Z,4.33
2024-01-27T10:56:53.090Z,4.10
2024-01-27T10:59:20.179Z,3.67
2024-01-27T11:01:48.616Z,3.61
2024-01-27T11:04:15.635Z,4.90
2024-01-27T11:06:42.330Z,5.74
2024-01-27T11:09:09.542Z,3.99
2024-01-27T11:11:36.257Z,3.53
2024-01-27T11:14:03.013Z,3.54
2024-01-27T11:16:30.031Z,4.10
2024-01-27T11:18:58.465Z,3.69
2024-01-27T11:21:25.320Z,3.53
2024-01-27T11:23:52.130Z,3.61
2024-01-27T11:26:20.870Z,3.48
2024-01-27T11:28:48.368Z,3.68
2024-01-27T11:31:17.730Z,3.95
2024-01-27T11:33:45.008Z,4.11
2024-01-27T11:36:20.364Z,3.41
2024-01-27T11:38:47.117Z,3.73
2024-01-27T11:41:13.785Z,4.15
2024-01-27T11:43:43.193Z,3.36
2024-01-27T11:46:09.896Z,3.55
2024-01-27T11:48:42.696Z,4.45
2024-01-27T11:51:11.692Z,5.18
2024-01-27T11:53:41.151Z,3.98
2024-01-27T11:56:07.970Z,3.22
2024-01-27T11:58:34.821Z,4.08
2024-01-27T12:01:01.604Z,3.71
2024-01-27T12:03:28.371Z,3.51
2024-01-27T12:05:55.262Z,3.84
2024-01-27T12:08:21.992Z,3.44
2024-01-27T12:10:50.182Z,3.70
2024-01-27T12:13:16.856Z,3.72
2024-01-27T12:15:44.028Z,2.86
2024-01-27T12:18:11.335Z,3.25
2024-01-27T12:20:38.194Z,3.88
2024-01-27T12:23:05.324Z,2.91
2024-01-27T12:25:32.055Z,2.47
2024-01-27T12:28:02.473Z,2.52
2024-01-27T12:30:29.221Z,3.59
2024-01-27T12:32:56.271Z,3.99
2024-01-27T12:35:24.262Z,4.14
2024-01-27T12:37:51.073Z,4.14
2024-01-27T12:40:22.178Z,4.35
2024-01-27T12:42:50.708Z,4.05
2024-01-27T12:45:19.026Z,3.84
2024-01-27T12:47:45.816Z,3.87
2024-01-27T12:50:12.745Z,3.72
2024-01-27T12:52:39.563Z,3.73
2024-01-27T12:55:06.705Z,3.79
2024-01-27T12:57:33.475Z,3.83
2024-01-27T13:00:00.425Z,3.60
2024-01-27T13:02:28.459Z,3.29
2024-01-27T13:04:55.153Z,3.22
2024-01-27T13:07:21.798Z,3.36
2024-01-27T13:09:48.606Z,2.83
2024-01-27T13:12:15.365Z,2.26
2024-01-27T13:14:42.186Z,2.40
2024-01-27T13:17:08.881Z,2.39
2024-01-27T13:19:36.979Z,2.54
2024-01-27T13:22:03.990Z,2.93
2024-01-27T13:24:30.793Z,2.69
2024-01-27T13:26:57.596Z,3.48
2024-01-27T13:29:24.550Z,2.24
2024-01-27T13:31:51.291Z,2.61
2024-01-27T13:34:18.763Z,2.70
2024-01-27T13:36:47.092Z,2.71
2024-01-27T13:39:13.845Z,2.57
2024-01-27T13:41:40.718Z,2.51
2024-01-27T13:44:07.375Z,2.35
2024-01-27T13:46:34.173Z,2.63
2024-01-27T13:49:01.177Z,2.83
2024-01-27T13:51:28.119Z,2.77
2024-01-27T13:53:56.323Z,2.82
2024-01-27T13:56:23.063Z,2.94
2024-01-27T13:58:49.755Z,2.87
2024-01-27T14:01:16.533Z,2.78
2024-01-27T14:03:43.520Z,2.62
2024-01-27T14:06:10.367Z,2.54
2024-01-27T14:08:37.095Z,2.58
2024-01-27T14:11:05.302Z,2.45
2024-01-27T14:13:31.979Z,2.63
2024-01-27T14:15:58.710Z,2.52
2024-01-27T14:18:25.592Z,2.53
2024-01-27T14:20:52.356Z,2.44
2024-01-27T14:23:19.092Z,2.84
2024-01-27T14:25:47.771Z,2.68
2024-01-27T14:28:16.463Z,2.81
2024-01-27T14:30:43.624Z,2.86
2024-01-27T14:33:10.603Z,2.69
2024-01-27T14:35:37.609Z,3.04
2024-01-27T14:38:05.028Z,2.57
2024-01-27T14:40:32.166Z,2.50
2024-01-27T14:42:58.975Z,2.52
2024-01-27T14:45:27.196Z,2.66
2024-01-27T14:47:57.010Z,2.64
2024-01-27T14:50:25.315Z,2.65
2024-01-27T14:52:52.318Z,2.98
2024-01-27T14:55:19.004Z,2.86
2024-01-27T14:57:45.691Z,2.91
2024-01-27T15:00:13.280Z,2.70
2024-01-27T15:02:41.401Z,2.62
2024-01-27T15:05:08.296Z,2.33
2024-01-27T15:07:35.024Z,2.61
2024-01-27T15:10:02.046Z,2.90
2024-01-27T15:12:28.813Z,2.54
2024-01-27T15:14:55.724Z,2.49
2024-01-27T15:17:24.972Z,2.76
2024-01-27T15:19:54.295Z,2.77
2024-01-27T15:22:21.125Z,2.70
2024-01-27T15:24:47.833Z,2.53
2024-01-27T15:27:14.584Z,2.74
2024-01-27T15:29:41.629Z,2.36
2024-01-27T15:32:08.641Z,2.61
2024-01-27T15:34:35.444Z,2.80
2024-01-27T15:37:03.774Z,3.04
2024-01-27T15:39:30.577Z,2.57
2024-01-27T15:41:57.515Z,2.57
2024-01-27T15:44:24.311Z,3.05
2024-01-27T15:46:51.079Z,3.02
2024-01-27T15:49:17.921Z,3.35
2024-01-27T15:51:44.871Z,3.04
2024-01-27T15:54:13.323Z,3.17
2024-01-27T15:56:40.327Z,3.20
2024-01-27T15:59:07.034Z,2.96
2024-01-27T16:01:33.796Z,3.40
2024-01-27T16:04:00.695Z,3.59
2024-01-27T16:06:27.608Z,3.50
2024-01-27T16:08:54.392Z,3.43
2024-01-27T16:11:23.135Z,3.55
2024-01-27T16:13:49.840Z,4.10
2024-01-27T16:16:16.602Z,4.43
2024-01-27T16:18:43.541Z,4.22
2024-01-27T16:21:10.439Z,4.05
2024-01-27T16:23:37.279Z,3.43
2024-01-27T16:26:04.317Z,3.59
2024-01-27T16:28:32.465Z,3.50
2024-01-27T16:30:59.230Z,3.50
2024-01-27T16:33:26.084Z,3.72
2024-01-27T16:35:52.806Z,3.72
2024-01-27T16:38:19.593Z,3.45
2024-01-27T16:40:46.308Z,3.62
2024-01-27T16:43:13.592Z,3.91
2024-01-27T16:45:41.812Z,3.81
2024-01-27T16:48:08.745Z,3.86
2024-01-27T16:50:35.944Z,4.07
2024-01-27T16:53:02.672Z,3.84
2024-01-27T16:55:29.414Z,4.00
2024-01-27T16:57:56.168Z,4.29
2024-01-27T17:00:22.972Z,4.67
2024-01-27T17:02:51.262Z,4.66
2024-01-27T17:05:18.194Z,4.81
2024-01-27T17:07:44.961Z,4.92
2024-01-27T17:10:11.799Z,4.60
2024-01-27T17:12:38.529Z,4.76
2024-01-27T17:15:09.394Z,4.86
2024-01-27T17:17:38.088Z,4.73
2024-01-27T17:20:07.393Z,5.12
2024-01-27T17:22:34.207Z,5.29
2024-01-27T17:25:00.966Z,5.16
2024-01-27T17:27:27.834Z,4.91
2024-01-27T17:29:54.739Z,4.81
2024-01-27T17:32:21.529Z,5.09
2024-01-27T17:34:48.400Z,5.30
2024-01-27T17:37:16.508Z,5.39
2024-01-27T17:39:43.290Z,5.41
2024-01-27T17:42:12.129Z,4.84
2024-01-27T17:44:39.214Z,5.42
2024-01-27T17:47:06.015Z,5.11
2024-01-27T17:49:32.785Z,4.99
2024-01-27T17:51:59.492Z,5.57
2024-01-27T17:54:27.625Z,5.73
2024-01-27T17:56:54.388Z,5.91
2024-01-27T17:59:22.677Z,5.86
2024-01-27T18:01:49.389Z,5.92
2024-01-27T18:04:16.273Z,6.45
2024-01-27T18:06:43.301Z,6.41
2024-01-27T18:09:10.186Z,6.42
2024-01-27T18:11:38.978Z,6.92
2024-01-27T18:14:05.837Z,7.37
2024-01-27T18:16:32.551Z,7.37
2024-01-27T18:18:59.235Z,6.73
2024-01-27T18:21:25.928Z,6.37
2024-01-27T18:23:52.876Z,6.41
2024-01-27T18:26:19.567Z,6.52
2024-01-27T18:28:47.609Z,6.51
2024-01-27T18:31:16.029Z,6.77
2024-01-27T18:33:42.922Z,7.18
2024-01-27T18:36:09.902Z,7.54
2024-01-27T18:38:36.764Z,7.70
2024-01-27T18:41:03.697Z,7.73
2024-01-27T18:43:30.449Z,8.16
2024-01-27T18:45:58.708Z,8.18
2024-01-27T18:48:25.851Z,7.74
2024-01-27T18:50:52.987Z,7.58
2024-01-27T18:53:19.712Z,7.98
2024-01-27T18:55:46.469Z,8.21
2024-01-27T18:58:13.190Z,8.44
2024-01-27T19:00:39.995Z,8.73
2024-01-27T19:03:08.419Z,7.78
2024-01-27T19:05:35.438Z,7.28
2024-01-27T19:08:02.244Z,7.65
2024-01-27T19:10:28.988Z,7.39
2024-01-27T19:12:55.752Z,8.29
2024-01-27T19:15:22.477Z,8.94
2024-01-27T19:17:49.264Z,9.18
2024-01-27T19:20:17.677Z,9.24
2024-01-27T19:22:44.464Z,8.50
2024-01-27T19:25:11.384Z,7.93
2024-01-27T19:27:38.234Z,8.28
2024-01-27T19:30:06.357Z,8.01
2024-01-27T19:32:33.077Z,7.80
2024-01-27T19:34:59.954Z,7.99
2024-01-27T19:37:28.002Z,7.49
2024-01-27T19:39:54.684Z,7.50
2024-01-27T19:42:21.386Z,7.97
2024-01-27T19:44:48.125Z,9.11
2024-01-27T19:47:14.833Z,11.42
2024-01-27T19:49:41.703Z,11.13
2024-01-27T19:52:08.504Z,11.40
2024-01-27T19:54:36.942Z,10.53
2024-01-27T19:57:04.026Z,11.06
2024-01-27T19:59:30.898Z,10.89
2024-01-27T20:01:57.629Z,10.62
2024-01-27T20:04:24.545Z,10.78
2024-01-27T20:06:51.515Z,11.55
2024-01-27T20:09:18.553Z,10.83
2024-01-27T20:11:46.986Z,10.55
2024-01-27T20:14:13.749Z,11.03
2024-01-27T20:16:40.412Z,10.64
2024-01-27T20:19:07.281Z,10.43
2024-01-27T20:21:34.097Z,10.40
2024-01-27T20:24:00.829Z,10.82
2024-01-27T20:26:27.567Z,11.82
2024-01-27T20:28:55.701Z,10.95
2024-01-27T20:31:22.817Z,10.41
2024-01-27T20:33:50.592Z,11.39
2024-01-27T20:36:17.622Z,11.40
2024-01-27T20:38:44.616Z,10.70
2024-01-27T20:41:11.359Z,10.90
2024-01-27T20:43:38.152Z,10.49
2024-01-27T20:46:06.247Z,10.79
2024-01-27T20:48:33.051Z,11.38
2024-01-27T20:50:59.986Z,11.97
2024-01-27T20:53:26.757Z,11.72
2024-01-27T20:55:53.492Z,13.07
2024-01-27T20:58:20.253Z,12.72
2024-01-27T21:00:47.165Z,11.74
2024-01-27T21:03:15.399Z,11.49
2024-01-27T21:05:42.117Z,11.18
2024-01-27T21:08:08.856Z,10.90
2024-01-27T21:10:35.650Z,12.55
2024-01-27T21:13:02.410Z,17.48
2024-01-27T21:15:29.139Z,14.21
2024-01-27T21:17:55.937Z,12.06
2024-01-27T21:20:24.069Z,12.25
2024-01-27T21:22:50.801Z,11.85
2024-01-27T21:25:17.612Z,12.01
2024-01-27T21:27:44.415Z,11.01
2024-01-27T21:30:11.907Z,11.79
2024-01-27T21:32:38.794Z,11.20
2024-01-27T21:35:06.033Z,11.54
2024-01-27T21:37:34.129Z,11.72
2024-01-27T21:40:00.849Z,12.61
2024-01-27T21:42:27.604Z,11.96
2024-01-27T21:44:54.627Z,11.93
2024-01-27T21:47:21.435Z,11.87
2024-01-27T21:49:48.204Z,12.65
2024-01-27T21:52:16.419Z,13.84
2024-01-27T21:54:44.824Z,14.05
2024-01-27T21:57:11.716Z,13.85
2024-01-27T21:59:38.467Z,14.64
2024-01-27T22:02:05.371Z,13.74
2024-01-27T22:04:32.354Z,13.16
2024-01-27T22:06:59.209Z,13.36
2024-01-27T22:09:26.037Z,12.95
2024-01-27T22:11:54.120Z,12.53
2024-01-27T22:14:21.152Z,13.03
2024-01-27T22:16:47.855Z,13.55
2024-01-27T22:19:15.340Z,12.64
2024-01-27T22:21:42.482Z,13.09
2024-01-27T22:24:09.410Z,12.96
2024-01-27T22:26:37.164Z,12.78
2024-01-27T22:29:05.387Z,13.04
2024-01-27T22:31:32.688Z,12.90
2024-01-27T22:34:00.188Z,12.91
2024-01-27T22:36:27.859Z,12.86
2024-01-27T22:38:56.701Z,12.56
2024-01-27T22:41:24.431Z,12.90
2024-01-27T22:43:52.008Z,13.17
2024-01-27T22:46:20.808Z,13.40
2024-01-27T22:48:48.633Z,12.82
2024-01-27T22:51:15.976Z,13.35
2024-01-27T22:53:43.210Z,12.72
2024-01-27T22:56:10.340Z,12.89
2024-01-27T22:58:37.415Z,13.10
2024-01-27T23:01:05.857Z,12.45
2024-01-27T23:03:35.109Z,12.24
2024-01-27T23:06:04.120Z,11.99
2024-01-27T23:08:31.686Z,12.02
2024-01-27T23:11:00.217Z,11.99
2024-01-27T23:13:27.954Z,11.22
2024-01-27T23:15:55.859Z,11.68
2024-01-27T23:18:28.472Z,11.18
2024-01-27T23:20:56.893Z,11.65
2024-01-27T23:23:23.993Z,11.43
2024-01-27T23:25:51.129Z,11.23
2024-01-27T23:28:19.935Z,11.40
2024-01-27T23:30:48.308Z,11.53
2024-01-27T23:33:19.870Z,11.33
2024-01-27T23:35:47.100Z,11.26
2024-01-27T23:38:16.220Z,11.84
2024-01-27T23:40:43.667Z,11.89
2024-01-27T23:43:11.126Z,11.95
2024-01-27T23:45:38.646Z,12.71
2024-01-27T23:48:07.497Z,12.14
2024-01-27T23:50:35.431Z,12.42
2024-01-27T23:53:03.267Z,12.15
2024-01-27T23:55:34.567Z,12.04
2024-01-27T23:58:02.184Z,12.63
